Time;durP1;ratioP1;P1;durP2;ratioP2;P2;SDS_P1;SDS_P2;PMS_P1;PMS_P2;Temp;Humidity;BMP_temperature;BMP_pressure;BME280_temperature;BME280_humidity;BME280_pressure;Samples;Min_cycle;Max_cycle;Signal;HPM_P1;HPM_P2
2021/10/16 00:02:00;;;;;;;27.05;18.60;;;;;;;6.73;73.90;100082.19;1777063;79;21026;-74
2021/10/16 00:04:26;;;;;;;24.12;18.20;;;;;;;6.76;74.02;100075.06;1806796;79;21081;-76
2021/10/16 00:06:53;;;;;;;25.57;18.85;;;;;;;6.82;74.09;100076.88;1806890;77;20963;-77
2021/10/16 00:09:19;;;;;;;27.25;18.67;;;;;;;6.89;74.09;100081.69;1790777;78;21022;-76
2021/10/16 00:11:46;;;;;;;26.15;18.98;;;;;;;6.95;73.99;100082.13;1750869;80;20993;-77
2021/10/16 00:14:12;;;;;;;25.32;18.67;;;;;;;6.94;73.89;100080.52;1765786;81;21068;-75
2021/10/16 00:16:38;;;;;;;24.63;17.98;;;;;;;6.96;73.88;100070.92;1823366;77;20996;-74
2021/10/16 00:19:05;;;;;;;26.90;17.85;;;;;;;6.95;73.81;100075.45;1795611;79;21637;-70
2021/10/16 00:21:33;;;;;;;28.00;18.30;;;;;;;6.95;73.86;100075.98;1795512;80;21111;-74
2021/10/16 00:23:59;;;;;;;23.20;18.12;;;;;;;6.85;74.05;100068.97;1805482;79;20966;-74
2021/10/16 00:26:26;;;;;;;22.70;17.12;;;;;;;6.78;74.18;100071.67;1807679;79;21500;-75
2021/10/16 00:28:52;;;;;;;23.38;17.92;;;;;;;6.73;74.43;100067.48;1809182;77;21073;-79
2021/10/16 00:31:19;;;;;;;22.52;17.02;;;;;;;6.66;74.59;100065.39;1834077;77;20981;-83
2021/10/16 00:33:46;;;;;;;27.05;18.75;;;;;;;6.61;74.81;100061.20;1774784;80;21599;-76
2021/10/16 00:36:12;;;;;;;27.02;16.73;;;;;;;6.54;75.18;100051.88;1795258;80;21074;-75
2021/10/16 00:38:40;;;;;;;27.65;19.32;;;;;;;6.54;75.38;100048.38;1784106;79;21004;-78
2021/10/16 00:41:06;;;;;;;27.55;18.48;;;;;;;6.50;75.57;100046.66;1807599;79;21085;-76
2021/10/16 00:43:34;;;;;;;23.05;16.90;;;;;;;6.50;75.67;100039.16;1807427;79;20971;-76
2021/10/16 00:46:00;;;;;;;25.27;19.12;;;;;;;6.51;75.85;100043.48;1809644;78;21053;-76
2021/10/16 00:48:26;;;;;;;41.77;25.32;;;;;;;6.46;75.99;100042.79;1804697;79;21018;-76
2021/10/16 00:50:54;;;;;;;24.87;17.20;;;;;;;6.41;76.08;100042.61;1807289;79;21006;-75
2021/10/16 00:53:20;;;;;;;21.35;15.10;;;;;;;6.40;76.19;100043.64;1803984;79;20963;-77
2021/10/16 00:55:50;;;;;;;23.22;16.40;;;;;;;6.39;76.42;100036.65;1807589;79;22133;-76
2021/10/16 00:58:19;;;;;;;23.27;17.35;;;;;;;6.35;76.65;100034.11;1778484;79;20943;-71
2021/10/16 01:00:46;;;;;;;23.90;18.87;;;;;;;6.32;77.13;100027.87;1777465;79;21566;-73
2021/10/16 01:03:12;;;;;;;28.32;17.42;;;;;;;6.31;77.12;100024.89;1747462;80;21558;-73
2021/10/16 01:05:39;;;;;;;23.80;18.73;;;;;;;6.38;77.18;100024.86;1810676;78;21027;-72
2021/10/16 01:08:09;;;;;;;22.42;14.90;;;;;;;6.43;77.06;100020.48;1831723;78;21930;-74
2021/10/16 01:10:36;;;;;;;21.35;16.32;;;;;;;6.48;76.97;100019.33;1815022;78;20945;-74
2021/10/16 01:13:03;;;;;;;23.20;16.23;;;;;;;6.49;76.92;100018.30;1740413;79;21416;-73
2021/10/16 01:15:29;;;;;;;24.57;17.80;;;;;;;6.47;76.97;100019.56;1778136;79;20992;-75
2021/10/16 01:17:57;;;;;;;22.67;16.50;;;;;;;6.43;77.01;100024.50;1778119;79;21093;-73
2021/10/16 01:20:24;;;;;;;20.40;14.85;;;;;;;6.41;77.11;100024.42;1802094;79;21137;-75
2021/10/16 01:22:52;;;;;;;24.90;16.55;;;;;;;6.39;77.19;100027.30;1747296;80;21030;-75
2021/10/16 01:25:20;;;;;;;26.45;18.25;;;;;;;6.32;77.43;100031.05;1752907;78;21033;-75
2021/10/16 01:27:47;;;;;;;26.12;17.73;;;;;;;6.25;77.80;100023.58;1778331;79;21004;-77
2021/10/16 01:30:19;;;;;;;25.52;18.42;;;;;;;6.23;78.01;100025.66;1807927;79;21033;-78
2021/10/16 01:32:46;;;;;;;25.68;18.10;;;;;;;6.24;78.13;100028.09;1767068;81;21848;-79
2021/10/16 01:35:13;;;;;;;27.45;19.10;;;;;;;6.27;78.23;100026.35;1745236;82;20971;-77
2021/10/16 01:37:43;;;;;;;23.67;18.07;;;;;;;6.29;78.23;100023.45;1744534;82;21002;-78
2021/10/16 01:40:11;;;;;;;26.97;18.07;;;;;;;6.26;78.32;100018.55;1743806;82;20998;-76
2021/10/16 01:42:42;;;;;;;28.62;18.85;;;;;;;6.10;79.49;100022.52;1737800;82;20945;-81
2021/10/16 01:45:14;;;;;;;26.62;19.52;;;;;;;5.94;80.25;100008.34;1717155;82;21052;-75
2021/10/16 01:47:50;;;;;;;26.23;17.50;;;;;;;5.83;81.19;100007.62;1739755;80;21525;-76
2021/10/16 01:50:20;;;;;;;25.30;16.82;;;;;;;5.74;82.12;100016.38;1716625;82;20882;-82
2021/10/16 01:52:47;;;;;;;28.30;17.75;;;;;;;5.71;82.38;100016.78;1717589;82;21017;-77
2021/10/16 01:55:13;;;;;;;30.43;19.48;;;;;;;5.68;82.57;100006.03;1737614;82;21022;-77
2021/10/16 01:57:40;;;;;;;26.07;17.45;;;;;;;5.67;82.85;100003.56;1737538;82;21176;-77
2021/10/16 02:00:08;;;;;;;30.48;18.07;;;;;;;5.70;82.92;100003.16;1737258;82;20981;-76
2021/10/16 02:02:35;;;;;;;24.72;19.27;;;;;;;5.71;83.10;99996.26;1737267;82;20985;-73
2021/10/16 02:05:20;;;;;;;23.85;18.32;;;;;;;5.73;83.03;99997.39;1739760;80;21000;-74
2021/10/16 02:07:49;;;;;;;25.10;18.12;;;;;;;5.73;83.10;100000.06;1713296;82;21036;-76
2021/10/16 02:10:16;;;;;;;26.23;18.32;;;;;;;5.76;83.05;100012.14;1810754;77;20997;-73
2021/10/16 02:12:43;;;;;;;25.85;19.00;;;;;;;5.79;82.95;100003.23;1784851;79;21028;-71
2021/10/16 02:15:09;;;;;;;28.23;18.15;;;;;;;5.83;82.92;100003.10;1784815;79;21002;-75
2021/10/16 02:17:38;;;;;;;27.67;19.50;;;;;;;5.89;82.84;99992.13;1782851;79;21492;-73
2021/10/16 02:20:07;;;;;;;25.35;18.05;;;;;;;5.91;82.72;99989.54;1774692;79;21590;-75
2021/10/16 02:22:37;;;;;;;25.52;17.45;;;;;;;5.97;82.66;99989.22;1761717;79;21137;-76
2021/10/16 02:25:04;;;;;;;28.05;17.15;;;;;;;6.01;82.59;99984.57;1800343;77;20935;-75
2021/10/16 02:27:31;;;;;;;24.15;17.70;;;;;;;6.03;82.44;99980.36;1804818;79;21581;-74
2021/10/16 02:30:00;;;;;;;22.35;18.30;;;;;;;6.05;82.35;99980.44;1805107;79;21005;-75
2021/10/16 02:32:26;;;;;;;26.25;18.50;;;;;;;6.11;82.27;99989.45;1800422;79;20922;-76
2021/10/16 02:34:53;;;;;;;27.60;18.85;;;;;;;6.16;82.16;99984.28;1783903;79;21023;-76
2021/10/16 02:37:20;;;;;;;26.73;19.82;;;;;;;6.19;81.97;99979.05;1781150;80;21514;-77
2021/10/16 02:39:47;;;;;;;23.87;17.87;;;;;;;6.23;81.89;99974.91;1787501;79;21034;-74
2021/10/16 02:42:13;;;;;;;22.98;16.90;;;;;;;6.24;81.62;99977.86;1803165;79;21102;-75
2021/10/16 02:44:39;;;;;;;20.37;15.48;;;;;;;6.21;81.67;99990.32;1806780;79;21035;-74
2021/10/16 02:47:06;;;;;;;24.50;18.15;;;;;;;6.14;81.72;99989.83;1806789;79;21025;-74
2021/10/16 02:49:33;;;;;;;23.00;18.62;;;;;;;6.11;81.91;99986.78;1746258;80;20959;-74
2021/10/16 02:52:00;;;;;;;31.12;18.67;;;;;;;6.08;82.01;99985.88;1758348;80;20997;-75
2021/10/16 02:54:26;;;;;;;24.18;18.15;;;;;;;6.09;82.06;99981.64;1776241;80;21041;-75
2021/10/16 02:56:53;;;;;;;20.65;15.58;;;;;;;6.11;82.07;99982.26;1787226;79;20981;-74
2021/10/16 02:59:20;;;;;;;20.88;16.85;;;;;;;6.18;81.97;99984.91;1787185;79;21123;-75
2021/10/16 03:01:48;;;;;;;22.55;16.82;;;;;;;6.23;81.82;99984.27;1787291;79;21012;-72
2021/10/16 03:04:14;;;;;;;26.48;19.30;;;;;;;6.25;81.72;99983.00;1776850;79;20966;-74
2021/10/16 03:06:41;;;;;;;27.32;17.90;;;;;;;6.29;81.58;99983.38;1781797;79;20962;-72
2021/10/16 03:09:08;;;;;;;24.47;19.37;;;;;;;6.34;81.54;99975.55;1786100;79;21038;-73
2021/10/16 03:11:36;;;;;;;29.50;19.67;;;;;;;6.35;81.29;99980.69;1838373;77;21892;-73
2021/10/16 03:14:03;;;;;;;25.65;17.15;;;;;;;6.31;81.31;99978.14;1842847;77;21038;-73
2021/10/16 03:16:31;;;;;;;21.40;16.82;;;;;;;6.28;81.52;99974.58;1843163;77;21560;-75
2021/10/16 03:18:58;;;;;;;24.60;18.37;;;;;;;6.28;81.52;99975.09;1842702;77;21481;-74
2021/10/16 03:21:24;;;;;;;24.82;18.57;;;;;;;6.24;81.59;99974.68;1842829;77;21561;-74
2021/10/16 03:23:51;;;;;;;25.50;18.70;;;;;;;6.24;81.70;99979.20;1794013;79;21045;-85
2021/10/16 03:26:17;;;;;;;27.62;18.98;;;;;;;6.25;81.88;99964.30;1797529;77;21457;-73
2021/10/16 03:28:44;;;;;;;25.30;19.70;;;;;;;6.25;82.01;99968.82;1796830;79;21571;-75
2021/10/16 03:31:12;;;;;;;23.75;17.98;;;;;;;6.25;82.03;99968.31;1787318;79;20973;-74
2021/10/16 03:33:39;;;;;;;24.40;18.23;;;;;;;6.26;82.05;99967.80;1787266;79;21573;-74
2021/10/16 03:36:05;;;;;;;26.17;16.48;;;;;;;6.26;82.04;99967.80;1776466;80;21182;-75
2021/10/16 03:38:32;;;;;;;24.43;18.95;;;;;;;6.26;82.13;99969.95;1800472;79;20987;-73
2021/10/16 03:40:59;;;;;;;23.20;16.60;;;;;;;6.26;82.13;99968.63;1806875;79;21014;-74
2021/10/16 03:43:25;;;;;;;28.20;17.98;;;;;;;6.26;82.26;99967.80;1786420;79;20979;-75
2021/10/16 03:45:51;;;;;;;28.42;18.87;;;;;;;6.27;82.29;99970.78;1791694;79;21029;-74
2021/10/16 03:48:19;;;;;;;24.60;18.75;;;;;;;6.24;82.28;99966.66;1795032;79;21319;-74
2021/10/16 03:50:45;;;;;;;25.82;19.95;;;;;;;6.24;82.24;99965.33;1776128;80;20983;-74
2021/10/16 03:53:12;;;;;;;23.27;18.32;;;;;;;6.26;82.25;99967.80;1795581;79;21047;-76
2021/10/16 03:55:39;;;;;;;28.87;18.77;;;;;;;6.28;82.30;99968.41;1795262;80;21496;-75
2021/10/16 03:58:07;;;;;;;24.07;19.55;;;;;;;6.28;82.20;99970.57;1774864;80;37664;-74
2021/10/16 04:00:34;;;;;;;24.25;18.50;;;;;;;6.26;82.31;99966.46;1776146;80;22114;-76
2021/10/16 04:03:04;;;;;;;24.87;19.62;;;;;;;6.25;82.35;99966.98;1776293;80;21495;-76
2021/10/16 04:05:35;;;;;;;30.32;19.02;;;;;;;6.23;82.57;99970.91;1780721;79;21048;-75
2021/10/16 04:08:01;;;;;;;32.70;20.43;;;;;;;6.24;82.60;99970.67;1785820;79;21057;-75
2021/10/16 04:10:28;;;;;;;28.20;20.60;;;;;;;6.26;82.69;99965.13;1783393;77;23870;-76
2021/10/16 04:12:55;;;;;;;25.27;17.10;;;;;;;6.30;82.67;99964.48;1812501;77;21033;-73
2021/10/16 04:15:22;;;;;;;22.90;18.15;;;;;;;6.32;82.69;99970.44;1812384;77;21048;-75
2021/10/16 04:17:50;;;;;;;21.62;16.85;;;;;;;6.30;82.69;99969.00;1842840;77;20925;-74
2021/10/16 04:20:17;;;;;;;25.10;18.23;;;;;;;6.30;82.79;99970.33;1812492;77;21007;-74
2021/10/16 04:22:49;;;;;;;25.72;16.87;;;;;;;6.30;82.84;99977.02;1805807;77;20986;-76
2021/10/16 04:25:15;;;;;;;24.67;18.25;;;;;;;6.29;82.94;99976.70;1794933;77;21008;-73
2021/10/16 04:27:43;;;;;;;26.62;19.23;;;;;;;6.30;83.05;99969.00;1794018;79;21033;-72
2021/10/16 04:30:26;;;;;;;24.12;17.95;;;;;;;6.32;83.08;99976.30;1794753;79;21019;-72
2021/10/16 04:32:55;;;;;;;24.75;18.12;;;;;;;6.39;83.08;99976.55;1774897;80;21043;-74
2021/10/16 04:35:21;;;;;;;27.27;19.25;;;;;;;6.40;83.02;99974.17;1785433;79;21599;-73
2021/10/16 04:37:48;;;;;;;24.52;19.82;;;;;;;6.40;83.14;99973.36;1806841;79;21077;-75
2021/10/16 04:42:41;;;;;;;25.62;18.85;;;;;;;6.40;83.54;99976.03;1783080;79;21062;-73
2021/10/16 04:45:09;;;;;;;28.42;20.20;;;;;;;6.42;83.57;99978.80;1801952;78;21012;-74
2021/10/16 04:47:37;;;;;;;26.95;18.70;;;;;;;6.43;83.54;99981.75;1794894;79;21079;-73
2021/10/16 04:50:08;;;;;;;23.60;16.82;;;;;;;6.44;83.57;99976.72;1790641;79;21493;-74
2021/10/16 04:52:35;;;;;;;31.42;19.05;;;;;;;6.44;83.67;99975.89;1777351;80;20954;-73
2021/10/16 04:55:06;;;;;;;24.67;20.20;;;;;;;6.43;83.71;99972.40;1793339;79;21038;-73
2021/10/16 04:57:35;;;;;;;26.62;19.50;;;;;;;6.47;83.75;99974.97;1779620;79;21489;-74
2021/10/16 05:00:01;;;;;;;25.90;18.70;;;;;;;6.53;83.70;99966.58;1769658;80;21003;-76
2021/10/16 05:02:31;;;;;;;23.12;17.73;;;;;;;6.55;83.54;99974.70;1799953;79;22521;-77
2021/10/16 05:04:57;;;;;;;27.45;20.40;;;;;;;6.57;83.48;99963.77;1801202;79;21078;-76
2021/10/16 05:07:24;;;;;;;23.10;18.35;;;;;;;6.58;83.42;99961.40;1826292;78;20941;-77
2021/10/16 05:09:51;;;;;;;28.83;19.25;;;;;;;6.62;83.45;99964.48;1770610;79;21066;-75
2021/10/16 05:12:18;;;;;;;23.05;17.75;;;;;;;6.70;83.37;99962.87;1797985;79;20947;-74
2021/10/16 05:14:45;;;;;;;23.80;18.12;;;;;;;6.76;83.29;99964.13;1756183;79;21872;-76
2021/10/16 05:17:13;;;;;;;31.40;20.15;;;;;;;6.79;83.13;99962.37;1801667;79;20935;-75
2021/10/16 05:19:41;;;;;;;24.98;18.87;;;;;;;6.78;83.10;99970.61;1801578;78;20889;-74
2021/10/16 05:22:08;;;;;;;28.90;19.05;;;;;;;6.79;83.16;99970.39;1800415;79;20951;-73
2021/10/16 05:24:35;;;;;;;30.70;21.73;;;;;;;6.79;83.12;99966.39;1781589;79;20991;-75
2021/10/16 05:27:03;;;;;;;33.78;23.10;;;;;;;6.80;83.26;99959.19;1800344;79;21477;-75
2021/10/16 05:29:30;;;;;;;35.60;24.52;;;;;;;6.83;83.36;99960.89;1815742;77;20968;-74
2021/10/16 05:31:57;;;;;;;33.42;23.77;;;;;;;6.86;83.40;99962.30;1801564;78;20974;-75
2021/10/16 05:34:23;;;;;;;35.78;22.13;;;;;;;6.89;83.47;99959.21;1773340;80;20966;-74
2021/10/16 05:36:50;;;;;;;35.08;23.00;;;;;;;6.93;83.55;99960.41;1796651;79;20900;-76
2021/10/16 05:39:17;;;;;;;35.38;24.12;;;;;;;6.96;83.56;99963.97;1771484;80;21020;-75
2021/10/16 05:41:44;;;;;;;29.98;23.25;;;;;;;6.96;83.58;99959.44;1792809;79;21018;-74
2021/10/16 05:44:11;;;;;;;33.33;21.62;;;;;;;7.04;83.67;99969.56;1806602;79;20967;-78
2021/10/16 05:46:38;;;;;;;29.85;20.80;;;;;;;7.09;83.86;99969.73;1806783;79;21515;-77
2021/10/16 05:49:06;;;;;;;29.35;21.68;;;;;;;7.12;83.82;99970.61;1831757;77;21048;-77
2021/10/16 05:51:36;;;;;;;27.65;21.55;;;;;;;7.16;83.83;99972.63;1826287;77;21849;-77
2021/10/16 05:54:04;;;;;;;22.75;18.73;;;;;;;7.19;83.62;99960.69;1786583;79;21017;-75
2021/10/16 05:56:31;;;;;;;27.02;21.15;;;;;;;7.20;83.62;99959.62;1787132;79;21120;-75
2021/10/16 05:59:00;;;;;;;31.02;22.52;;;;;;;7.23;83.91;99964.03;1805791;79;21567;-75
2021/10/16 06:01:27;;;;;;;25.45;19.75;;;;;;;7.26;84.05;99957.41;1775668;80;21576;-74
2021/10/16 06:03:55;;;;;;;29.98;22.02;;;;;;;7.27;84.12;99959.05;1773272;80;21123;-77
2021/10/16 06:06:21;;;;;;;28.40;20.88;;;;;;;7.29;84.21;99954.31;1751975;77;20944;-74
2021/10/16 06:08:48;;;;;;;24.80;19.02;;;;;;;7.30;84.14;99957.25;1812676;77;21081;-73
2021/10/16 06:11:16;;;;;;;24.55;18.52;;;;;;;7.34;84.16;99958.44;1819629;77;20974;-77
2021/10/16 06:13:42;;;;;;;26.82;21.68;;;;;;;7.41;84.07;99965.38;1806778;79;21098;-75
2021/10/16 06:16:09;;;;;;;29.77;22.93;;;;;;;7.50;83.92;99969.91;1807206;79;21426;-77
2021/10/16 06:18:39;;;;;;;28.32;21.75;;;;;;;7.59;83.73;99971.24;1799855;79;20932;-75
2021/10/16 06:21:05;;;;;;;25.43;19.12;;;;;;;7.60;83.63;99964.86;1770477;80;21041;-76
2021/10/16 06:23:32;;;;;;;27.73;22.82;;;;;;;7.65;83.77;99956.97;1746228;81;21012;-77
2021/10/16 06:25:59;;;;;;;31.17;23.57;;;;;;;7.71;83.75;99966.80;1793415;77;21505;-76
2021/10/16 06:28:25;;;;;;;32.90;24.95;;;;;;;7.73;83.90;99958.00;1797890;77;21026;-77
2021/10/16 06:30:51;;;;;;;29.23;21.52;;;;;;;7.75;84.04;99950.57;1785655;79;21088;-76
2021/10/16 06:33:18;;;;;;;33.67;22.55;;;;;;;7.74;84.32;99962.31;1797111;79;21324;-75
2021/10/16 06:35:44;;;;;;;29.82;21.70;;;;;;;7.77;84.35;99960.52;1787446;79;21058;-76
2021/10/16 06:38:22;;;;;;;26.00;19.25;;;;;;;7.80;84.51;99957.41;1803363;79;20992;-75
2021/10/16 06:40:50;;;;;;;33.00;22.65;;;;;;;7.81;84.82;99962.25;1778459;79;21829;-75
2021/10/16 06:43:19;;;;;;;28.20;22.90;;;;;;;7.83;84.96;99960.14;1814706;77;20973;-76
2021/10/16 06:46:06;;;;;;;25.92;20.08;;;;;;;7.84;85.16;99966.62;1778621;79;21575;-75
2021/10/16 06:48:35;;;;;;;24.15;21.23;;;;;;;7.87;85.39;99969.36;1755632;81;21006;-75
2021/10/16 06:51:09;;;;;;;28.38;22.45;;;;;;;7.89;85.51;99971.30;1738078;81;21067;-75
2021/10/16 06:53:36;;;;;;;26.07;22.05;;;;;;;7.96;85.67;99965.33;1757253;81;21073;-73
2021/10/16 06:56:03;;;;;;;29.70;20.57;;;;;;;8.03;85.73;99966.59;1758292;81;21015;-76
2021/10/16 06:58:31;;;;;;;29.85;21.00;;;;;;;8.07;85.67;99955.19;1758299;81;20972;-74
2021/10/16 07:00:58;;;;;;;25.45;20.27;;;;;;;8.10;85.52;99959.30;1738683;81;21051;-73
2021/10/16 07:03:30;;;;;;;26.55;20.27;;;;;;;8.11;85.49;99960.38;1715802;83;21536;-72
2021/10/16 07:05:58;;;;;;;26.70;19.30;;;;;;;8.17;85.53;99956.80;1733107;81;20957;-74
2021/10/16 07:08:28;;;;;;;28.27;20.92;;;;;;;8.23;85.39;99963.13;1757219;81;21532;-73
2021/10/16 07:10:53;;;;;;;38.65;22.52;;;;;;;8.27;85.17;99967.80;1742305;80;21004;-73
2021/10/16 07:13:19;;;;;;;24.95;21.75;;;;;;;8.37;85.04;99968.62;1722712;80;21542;-75
2021/10/16 07:15:45;;;;;;;21.05;17.12;;;;;;;8.48;84.54;99971.86;1749686;80;21618;-74
2021/10/16 07:18:13;;;;;;;35.80;22.62;;;;;;;8.57;84.23;99962.44;1743573;80;20996;-74
2021/10/16 07:20:41;;;;;;;25.88;19.65;;;;;;;8.64;83.87;99960.45;1773879;80;20940;-74
2021/10/16 07:23:08;;;;;;;29.95;21.65;;;;;;;8.71;83.75;99961.19;1768601;80;21019;-74
2021/10/16 07:25:34;;;;;;;25.95;20.25;;;;;;;8.81;83.45;99955.77;1775470;80;21026;-75
2021/10/16 07:28:00;;;;;;;25.52;19.52;;;;;;;8.89;82.95;99952.73;1754091;80;21264;-77
2021/10/16 07:30:27;;;;;;;25.48;20.02;;;;;;;8.94;82.58;99955.02;1749815;80;21140;-75
2021/10/16 07:32:53;;;;;;;27.50;19.85;;;;;;;9.00;82.25;99955.44;1720048;82;20992;-74
2021/10/16 07:35:20;;;;;;;26.57;21.10;;;;;;;9.06;81.97;99946.98;1739974;82;21044;-74
2021/10/16 07:37:47;;;;;;;30.62;22.05;;;;;;;9.12;81.77;99951.39;1741943;82;21074;-77
2021/10/16 07:40:13;;;;;;;34.10;22.17;;;;;;;9.14;81.56;99946.63;1715739;82;21000;-79
2021/10/16 07:42:40;;;;;;;29.77;20.85;;;;;;;9.17;81.56;99938.91;1739508;81;21119;-74
2021/10/16 07:45:07;;;;;;;28.00;21.20;;;;;;;9.26;81.27;99950.63;1760676;81;20925;-75
2021/10/16 07:47:33;;;;;;;28.00;22.77;;;;;;;9.26;80.96;99960.02;1714878;81;21035;-74
2021/10/16 07:49:59;;;;;;;31.00;24.27;;;;;;;9.29;80.88;99950.17;1732556;81;20948;-74
2021/10/16 07:52:26;;;;;;;28.92;20.82;;;;;;;9.35;80.72;99955.95;1752026;80;20917;-77
2021/10/16 07:54:52;;;;;;;27.95;22.00;;;;;;;9.42;80.66;99958.79;1742962;81;22001;-79
2021/10/16 07:57:21;;;;;;;25.27;20.70;;;;;;;9.50;80.39;99969.16;1760014;81;20941;-77
2021/10/16 07:59:48;;;;;;;31.55;23.95;;;;;;;9.55;79.81;99977.32;1759372;81;20957;-76
2021/10/16 08:02:15;;;;;;;30.08;23.55;;;;;;;9.56;79.48;99969.56;1741590;81;21074;-79
2021/10/16 08:04:41;;;;;;;31.90;24.70;;;;;;;9.59;79.26;99966.39;1727667;82;21023;-74
2021/10/16 08:07:07;;;;;;;33.25;22.82;;;;;;;9.65;79.10;99967.33;1732074;81;21714;-77
2021/10/16 08:09:35;;;;;;;33.50;24.15;;;;;;;9.70;78.69;99968.77;1712357;82;20989;-74
2021/10/16 08:12:01;;;;;;;28.65;23.07;;;;;;;9.75;78.30;99968.88;1733568;81;20988;-74
2021/10/16 08:14:29;;;;;;;32.03;24.02;;;;;;;9.79;77.94;99961.16;1729468;81;21619;-73
2021/10/16 08:16:57;;;;;;;31.45;24.37;;;;;;;9.84;78.11;99960.73;1761239;81;20973;-73
2021/10/16 08:19:23;;;;;;;31.93;24.05;;;;;;;9.93;77.13;99961.17;1715388;82;21810;-74
2021/10/16 08:21:50;;;;;;;31.87;23.92;;;;;;;9.98;76.98;99953.20;1715530;82;20944;-75
2021/10/16 08:24:16;;;;;;;32.13;26.05;;;;;;;10.01;76.77;99950.88;1711862;82;21045;-77
2021/10/16 08:26:42;;;;;;;36.93;23.73;;;;;;;10.04;76.38;99945.02;1736543;82;21059;-80
2021/10/16 08:29:09;;;;;;;27.73;22.07;;;;;;;10.08;76.25;99946.16;1781332;79;21582;-78
2021/10/16 08:31:35;;;;;;;23.50;19.15;;;;;;;10.10;75.90;99947.27;1801345;78;21029;-74
2021/10/16 08:34:02;;;;;;;28.73;22.80;;;;;;;10.16;75.81;99953.59;1817750;78;21125;-74
2021/10/16 08:36:29;;;;;;;27.40;22.02;;;;;;;10.20;75.84;99966.31;1781763;79;21038;-73
2021/10/16 08:38:55;;;;;;;31.82;22.60;;;;;;;10.29;75.65;99963.52;1781586;79;20944;-75
2021/10/16 08:41:21;;;;;;;32.48;23.00;;;;;;;10.29;75.41;99952.77;1775052;79;21032;-75
2021/10/16 08:43:48;;;;;;;29.32;23.22;;;;;;;10.29;75.52;99967.55;1779548;79;21039;-75
2021/10/16 08:46:14;;;;;;;25.68;21.35;;;;;;;10.34;75.47;99964.96;1768559;79;20983;-74
2021/10/16 08:48:40;;;;;;;29.05;22.82;;;;;;;10.37;75.10;99959.61;1750636;79;20948;-75
2021/10/16 08:51:09;;;;;;;28.00;19.37;;;;;;;10.32;75.23;99959.52;1778781;78;20934;-73
2021/10/16 08:53:36;;;;;;;34.73;24.47;;;;;;;10.31;75.41;99941.78;1771645;79;21060;-74
2021/10/16 08:56:13;;;;;;;30.62;25.37;;;;;;;10.34;75.51;99935.91;1778365;79;21054;-78
2021/10/16 08:58:40;;;;;;;34.38;26.30;;;;;;;10.37;75.50;99937.58;1807547;79;21010;-74
2021/10/16 09:01:06;;;;;;;37.93;25.45;;;;;;;10.41;75.40;99937.38;1807550;79;21031;-77
2021/10/16 09:03:45;;;;;;;37.50;25.88;;;;;;;10.48;75.28;99947.47;1747256;80;21801;-72
2021/10/16 09:06:20;;;;;;;30.60;25.15;;;;;;;10.54;75.08;99958.31;1807150;78;21301;-75
2021/10/16 09:08:52;;;;;;;30.92;24.60;;;;;;;10.55;74.81;99968.02;1810350;78;21855;-73
2021/10/16 09:11:27;;;;;;;23.73;20.68;;;;;;;10.57;74.61;99959.16;1807472;79;21595;-77
2021/10/16 09:14:04;;;;;;;28.52;18.98;;;;;;;10.64;74.36;99958.48;1828109;78;20969;-73
2021/10/16 09:16:40;;;;;;;26.15;20.40;;;;;;;10.66;73.56;99949.63;1841961;78;20929;-74
2021/10/16 09:19:22;;;;;;;22.30;18.90;;;;;;;10.66;73.43;99955.00;1813403;78;21568;-74
2021/10/16 09:22:04;;;;;;;24.75;19.90;;;;;;;10.71;73.39;99952.40;1808994;78;21061;-75
2021/10/16 09:24:43;;;;;;;27.00;21.57;;;;;;;10.74;72.97;99962.13;1807603;79;21009;-74
2021/10/16 09:27:22;;;;;;;33.28;21.30;;;;;;;10.81;72.71;99970.05;1778202;79;21546;-72
2021/10/16 09:29:52;;;;;;;21.50;18.02;;;;;;;10.81;72.56;99960.11;1778762;79;21087;-72
2021/10/16 09:32:24;;;;;;;26.62;20.85;;;;;;;10.91;72.59;99970.23;1804959;79;21072;-75
2021/10/16 09:35:06;;;;;;;28.98;19.90;;;;;;;11.01;71.54;99952.89;1808389;79;21773;-78
2021/10/16 09:37:34;;;;;;;24.23;19.02;;;;;;;11.11;70.80;99950.36;1778319;79;20947;-75
2021/10/16 09:40:01;;;;;;;23.87;17.73;;;;;;;11.21;69.20;99955.89;1791362;78;20940;-73
2021/10/16 09:42:45;;;;;;;22.40;16.57;;;;;;;11.29;68.01;99944.69;1807516;78;21171;-77
2021/10/16 09:45:14;;;;;;;23.25;16.02;;;;;;;11.35;67.04;99942.36;1778238;79;26483;-76
2021/10/16 09:47:56;;;;;;;19.10;14.13;;;;;;;11.42;66.01;99962.36;1807787;79;21021;-74
2021/10/16 09:50:23;;;;;;;16.27;14.53;;;;;;;11.50;65.13;99940.93;1807790;79;21000;-73
2021/10/16 09:52:51;;;;;;;16.93;14.85;;;;;;;11.57;64.52;99957.70;1778660;79;21033;-74
2021/10/16 09:55:20;;;;;;;21.93;16.27;;;;;;;11.63;63.80;99953.50;1809977;79;20994;-79
2021/10/16 09:57:46;;;;;;;31.15;17.02;;;;;;;11.70;63.72;99958.15;1781096;79;20959;-79
2021/10/16 10:00:15;;;;;;;21.20;16.40;;;;;;;11.77;63.37;99945.88;1778581;79;21069;-78
2021/10/16 10:02:51;;;;;;;17.32;15.45;;;;;;;11.86;63.71;99944.89;1807341;79;20950;-77
2021/10/16 10:05:17;;;;;;;19.87;14.63;;;;;;;11.95;63.44;99929.38;1752013;79;21012;-78
2021/10/16 10:07:44;;;;;;;20.60;16.48;;;;;;;12.04;63.43;99937.81;1807413;79;21054;-85
2021/10/16 10:10:10;;;;;;;21.20;17.15;;;;;;;12.10;63.14;99932.23;1778189;79;20950;-84
2021/10/16 10:12:38;;;;;;;23.52;17.15;;;;;;;12.18;63.17;99932.33;1823833;78;21138;-85
2021/10/16 10:15:08;;;;;;;25.70;19.05;;;;;;;12.25;63.06;99927.53;1841034;77;21011;-87
2021/10/16 10:17:36;;;;;;;22.35;17.37;;;;;;;12.32;63.18;99928.16;1839898;78;20956;-79
2021/10/16 10:20:13;;;;;;;18.37;15.65;;;;;;;12.42;62.79;99923.39;1834049;77;20964;-78
2021/10/16 10:22:46;;;;;;;31.07;18.87;;;;;;;12.44;62.43;99927.45;1817746;78;21535;-75
2021/10/16 10:25:28;;;;;;;22.80;17.75;;;;;;;12.43;62.58;99911.51;1778398;79;21332;-75
2021/10/16 10:27:56;;;;;;;24.75;18.70;;;;;;;12.44;62.41;99910.44;1807900;79;20966;-70
2021/10/16 10:30:39;;;;;;;22.27;16.95;;;;;;;12.49;62.18;99906.45;1807585;79;20998;-74
2021/10/16 10:33:21;;;;;;;20.97;15.58;;;;;;;12.50;61.66;99906.20;1808061;79;21035;-77
2021/10/16 10:36:09;;;;;;;21.87;15.60;;;;;;;12.52;61.56;99896.47;1784893;78;20944;-73
2021/10/16 10:38:39;;;;;;;21.57;16.70;;;;;;;12.61;61.73;99896.31;1779210;79;21693;-78
2021/10/16 10:41:30;;;;;;;20.40;16.67;;;;;;;12.66;61.26;99888.25;1804949;79;21067;-75
2021/10/16 10:43:57;;;;;;;23.27;16.95;;;;;;;12.68;61.45;99888.79;1807138;79;21791;-75
2021/10/16 10:46:27;;;;;;;20.43;17.48;;;;;;;12.71;60.86;99892.31;1807439;79;21001;-81
2021/10/16 10:48:54;;;;;;;20.68;17.17;;;;;;;12.72;61.21;99889.08;1807353;79;20999;-77
2021/10/16 10:51:33;;;;;;;22.75;17.57;;;;;;;12.83;61.06;99886.20;1805055;79;21420;-78
2021/10/16 10:54:21;;;;;;;25.45;16.57;;;;;;;12.97;60.85;99881.98;1783331;78;21535;-78
2021/10/16 10:56:55;;;;;;;23.38;16.65;;;;;;;13.09;60.22;99890.67;1778036;79;20991;-79
2021/10/16 10:59:20;;;;;;;23.65;17.73;;;;;;;13.21;59.86;99879.71;1803795;78;21571;-74
2021/10/16 11:02:03;;;;;;;19.73;15.35;;;;;;;13.34;59.73;99878.41;1778186;79;21045;-73
2021/10/16 11:04:49;;;;;;;18.67;14.55;;;;;;;13.53;59.42;99875.52;1807427;79;21088;-76
2021/10/16 11:07:31;;;;;;;21.85;17.05;;;;;;;13.60;58.10;99879.34;1777210;79;21606;-73
2021/10/16 11:09:59;;;;;;;18.55;15.75;;;;;;;13.69;58.44;99883.16;1778201;79;20983;-76
2021/10/16 11:12:39;;;;;;;19.07;14.95;;;;;;;13.83;57.43;99876.98;1807641;79;20951;-73
2021/10/16 11:15:08;;;;;;;19.40;15.88;;;;;;;13.88;56.42;99868.07;1807800;79;20994;-73
2021/10/16 11:17:42;;;;;;;21.37;15.32;;;;;;;13.95;56.80;99874.86;1807407;79;21041;-72
2021/10/16 11:20:14;;;;;;;22.00;16.02;;;;;;;14.14;56.72;99871.64;1807229;78;21565;-73
2021/10/16 11:22:52;;;;;;;22.50;15.03;;;;;;;14.36;55.99;99873.05;1807453;78;20935;-77
2021/10/16 11:25:25;;;;;;;22.93;15.55;;;;;;;14.49;55.20;99870.33;1807129;79;20982;-72
2021/10/16 11:28:09;;;;;;;18.50;15.18;;;;;;;14.57;54.93;99868.45;1807290;79;21535;-73
2021/10/16 11:30:40;;;;;;;20.60;15.50;;;;;;;14.63;54.19;99863.82;1771390;80;22614;-74
2021/10/16 11:33:09;;;;;;;19.25;13.45;;;;;;;14.65;53.87;99857.06;1754255;81;22413;-75